QFA2315 KBOS-CYWG
Flight info
| Callsign | QFA2315 |
|---|---|
| Flight time | N/A |
| Altitude | 36000 |
| Route | REVSS6 REVSS DCT CTR DCT RAKAM/N0453F380 DCT BURWA DCT TRUDY DCT OMVEG DCT EMIVA NORAK6 |
| Aircraft | A320/M-SDE3FGHIRWY/LB1 |
Departure
| Time | 2026-05-06 23:22 |
|---|---|
| Airport | Boston Logan International Airport (KBOS) |
Arrival
| Time | N/A |
|---|---|
| Airport | Winnipeg / James Armstrong Richardson International Airport (CYWG) |
| Time | Latitude | Longitude | Altitude | Speed | Heading |
|---|---|---|---|---|---|
| 2026-05-06 23:00 | 42.37046 | -71.02237 | 26 ft | 0 kts | 141° |
| 2026-05-06 23:11 | 42.37053 | -71.02244 | 25 ft | 4 kts | 146° |
| 2026-05-06 23:11 | 42.37076 | -71.02256 | 29 ft | 4 kts | 183° |
| 2026-05-06 23:11 | 42.37096 | -71.02250 | 29 ft | 4 kts | 198° |
| 2026-05-06 23:12 | 42.37118 | -71.02249 | 29 ft | 4 kts | 135° |
| 2026-05-06 23:12 | 42.37130 | -71.02279 | 25 ft | 4 kts | 103° |
| 2026-05-06 23:12 | 42.37135 | -71.02310 | 25 ft | 4 kts | 109° |
| 2026-05-06 23:12 | 42.37147 | -71.02342 | 25 ft | 4 kts | 129° |
| 2026-05-06 23:13 | 42.37162 | -71.02364 | 25 ft | 4 kts | 135° |
| 2026-05-06 23:13 | 42.37172 | -71.02377 | 25 ft | 0 kts | 135° |
| 2026-05-06 23:15 | 42.37157 | -71.02355 | 29 ft | 8 kts | 129° |
| 2026-05-06 23:15 | 42.37140 | -71.02279 | 26 ft | 8 kts | 85° |
| 2026-05-06 23:16 | 42.37181 | -71.02203 | 27 ft | 15 kts | 40° |
| 2026-05-06 23:16 | 42.37238 | -71.02113 | 25 ft | 11 kts | 73° |
| 2026-05-06 23:16 | 42.37232 | -71.02014 | 25 ft | 10 kts | 97° |
| 2026-05-06 23:16 | 42.37264 | -71.01911 | 28 ft | 13 kts | 39° |
| 2026-05-06 23:17 | 42.37287 | -71.01816 | 25 ft | 11 kts | 119° |
| 2026-05-06 23:17 | 42.37228 | -71.01734 | 30 ft | 14 kts | 135° |
| 2026-05-06 23:17 | 42.37146 | -71.01625 | 25 ft | 18 kts | 135° |
| 2026-05-06 23:17 | 42.37053 | -71.01500 | 25 ft | 20 kts | 134° |
| 2026-05-06 23:18 | 42.36953 | -71.01367 | 25 ft | 20 kts | 135° |
| 2026-05-06 23:18 | 42.36924 | -71.01241 | 26 ft | 14 kts | 76° |
| 2026-05-06 23:18 | 42.36966 | -71.01131 | 28 ft | 13 kts | 40° |
| 2026-05-06 23:18 | 42.37051 | -71.01069 | 27 ft | 14 kts | 26° |
| 2026-05-06 23:19 | 42.37136 | -71.01013 | 25 ft | 13 kts | 26° |
| 2026-05-06 23:19 | 42.37213 | -71.00963 | 27 ft | 11 kts | 26° |
| 2026-05-06 23:19 | 42.37294 | -71.00911 | 27 ft | 19 kts | 25° |
| 2026-05-06 23:19 | 42.37416 | -71.00852 | 27 ft | 18 kts | 19° |
| 2026-05-06 23:20 | 42.37530 | -71.00797 | 28 ft | 17 kts | 20° |
| 2026-05-06 23:20 | 42.37634 | -71.00746 | 27 ft | 15 kts | 19° |
| 2026-05-06 23:20 | 42.37765 | -71.00683 | 27 ft | 22 kts | 20° |
| 2026-05-06 23:20 | 42.37836 | -71.00607 | 28 ft | 12 kts | 80° |
| 2026-05-06 23:21 | 42.37816 | -71.00507 | 29 ft | 11 kts | 109° |
| 2026-05-06 23:21 | 42.37778 | -71.00480 | 28 ft | 7 kts | 198° |
| 2026-05-06 23:21 | 42.37635 | -71.00549 | 28 ft | 53 kts | 200° |
| 2026-05-06 23:21 | 42.37064 | -71.00825 | 26 ft | 118 kts | 199° |
| 2026-05-06 23:22 | 42.36178 | -71.01262 | 299 ft | 140 kts | 200° |
| 2026-05-06 23:22 | 42.35278 | -71.01727 | 974 ft | 140 kts | 198° |
| 2026-05-06 23:22 | 42.34292 | -71.01730 | 1708 ft | 147 kts | 168° |
| 2026-05-06 23:22 | 42.33408 | -71.00847 | 2138 ft | 179 kts | 140° |
| 2026-05-06 23:23 | 42.32562 | -70.99426 | 2454 ft | 204 kts | 137° |
| 2026-05-06 23:23 | 42.31716 | -70.97773 | 2756 ft | 234 kts | 121° |
| 2026-05-06 23:23 | 42.31296 | -70.95557 | 3314 ft | 256 kts | 97° |
| 2026-05-06 23:23 | 42.31492 | -70.93043 | 3710 ft | 283 kts | 79° |
| 2026-05-06 23:24 | 42.31896 | -70.90356 | 4332 ft | 297 kts | 79° |
| 2026-05-06 23:24 | 42.32302 | -70.87594 | 5177 ft | 302 kts | 81° |
| 2026-05-06 23:24 | 42.32679 | -70.84734 | 6022 ft | 307 kts | 87° |
| 2026-05-06 23:24 | 42.32653 | -70.81894 | 6825 ft | 308 kts | 102° |
| 2026-05-06 23:25 | 42.32154 | -70.79089 | 7637 ft | 308 kts | 113° |
| 2026-05-06 23:25 | 42.31369 | -70.76399 | 8435 ft | 308 kts | 124° |
| 2026-05-06 23:25 | 42.30107 | -70.74113 | 9229 ft | 300 kts | 146° |
| 2026-05-06 23:25 | 42.28395 | -70.72613 | 9997 ft | 289 kts | 167° |
| 2026-05-06 23:26 | 42.26460 | -70.71969 | 10591 ft | 286 kts | 184° |
| 2026-05-06 23:26 | 42.24500 | -70.72157 | 11302 ft | 281 kts | 197° |
| 2026-05-06 23:26 | 42.22569 | -70.72643 | 12112 ft | 282 kts | 199° |
| 2026-05-06 23:26 | 42.20771 | -70.73590 | 12899 ft | 276 kts | 216° |
| 2026-05-06 23:27 | 42.19316 | -70.75243 | 13655 ft | 275 kts | 231° |
| 2026-05-06 23:27 | 42.18294 | -70.77499 | 13893 ft | 293 kts | 249° |
| 2026-05-06 23:27 | 42.17834 | -70.80228 | 14413 ft | 302 kts | 257° |
| 2026-05-06 23:27 | 42.17473 | -70.83028 | 15068 ft | 305 kts | 257° |
| 2026-05-06 23:28 | 42.17096 | -70.85853 | 15735 ft | 308 kts | 257° |
| 2026-05-06 23:28 | 42.16709 | -70.88705 | 16414 ft | 311 kts | 256° |
| 2026-05-06 23:28 | 42.16324 | -70.91584 | 17081 ft | 314 kts | 258° |
| 2026-05-06 23:28 | 42.16257 | -70.94554 | 17734 ft | 323 kts | 270° |
| 2026-05-06 23:29 | 42.16714 | -70.97560 | 18348 ft | 332 kts | 279° |
| 2026-05-06 23:29 | 42.17369 | -71.00559 | 18917 ft | 335 kts | 280° |
| 2026-05-06 23:29 | 42.18029 | -71.03586 | 19488 ft | 337 kts | 280° |
| 2026-05-06 23:29 | 42.18689 | -71.06624 | 20059 ft | 339 kts | 281° |
| 2026-05-06 23:30 | 42.19356 | -71.09683 | 20623 ft | 341 kts | 281° |
| 2026-05-06 23:30 | 42.20023 | -71.12762 | 21207 ft | 343 kts | 281° |
| 2026-05-06 23:30 | 42.20691 | -71.15864 | 21783 ft | 345 kts | 281° |
| 2026-05-06 23:30 | 42.21364 | -71.18983 | 22354 ft | 348 kts | 282° |
| 2026-05-06 23:31 | 42.22044 | -71.22124 | 22920 ft | 350 kts | 282° |
| 2026-05-06 23:31 | 42.22727 | -71.25290 | 23440 ft | 352 kts | 282° |
| 2026-05-06 23:31 | 42.23409 | -71.28470 | 23908 ft | 354 kts | 282° |
| 2026-05-06 23:31 | 42.24090 | -71.31655 | 24380 ft | 354 kts | 282° |
| 2026-05-06 23:32 | 42.24767 | -71.34814 | 24870 ft | 355 kts | 282° |
| 2026-05-06 23:32 | 42.25454 | -71.38013 | 25349 ft | 355 kts | 281° |
| 2026-05-06 23:32 | 42.26137 | -71.41211 | 25819 ft | 356 kts | 281° |
| 2026-05-06 23:32 | 42.26822 | -71.44423 | 26277 ft | 356 kts | 281° |
| 2026-05-06 23:33 | 42.27507 | -71.47641 | 26709 ft | 357 kts | 281° |
| 2026-05-06 23:33 | 42.28188 | -71.50863 | 27154 ft | 357 kts | 281° |
| 2026-05-06 23:33 | 42.28870 | -71.54091 | 27590 ft | 358 kts | 281° |
| 2026-05-06 23:33 | 42.29554 | -71.57324 | 28046 ft | 358 kts | 281° |
| 2026-05-06 23:34 | 42.30239 | -71.60557 | 28491 ft | 358 kts | 281° |
| 2026-05-06 23:34 | 42.30922 | -71.63792 | 28907 ft | 358 kts | 280° |
| 2026-05-06 23:34 | 42.31605 | -71.67032 | 29298 ft | 359 kts | 280° |
| 2026-05-06 23:34 | 42.32289 | -71.70280 | 29667 ft | 360 kts | 280° |
| 2026-05-06 23:35 | 42.32974 | -71.73536 | 30004 ft | 361 kts | 280° |
| 2026-05-06 23:35 | 42.33661 | -71.76802 | 30297 ft | 362 kts | 280° |
| 2026-05-06 23:35 | 42.34274 | -71.80095 | 30563 ft | 360 kts | 275° |
| 2026-05-06 23:35 | 42.34447 | -71.83447 | 30819 ft | 357 kts | 266° |
| 2026-05-06 23:36 | 42.34299 | -71.86802 | 31072 ft | 358 kts | 265° |
| 2026-05-06 23:36 | 42.34148 | -71.90164 | 31338 ft | 358 kts | 265° |
| 2026-05-06 23:36 | 42.34002 | -71.93517 | 31761 ft | 356 kts | 265° |
| 2026-05-06 23:36 | 42.33857 | -71.96835 | 32175 ft | 353 kts | 265° |
| 2026-05-06 23:37 | 42.33711 | -72.00141 | 32558 ft | 351 kts | 265° |
| 2026-05-06 23:37 | 42.33564 | -72.03429 | 32923 ft | 350 kts | 265° |
| 2026-05-06 23:37 | 42.33419 | -72.06704 | 33282 ft | 348 kts | 265° |
| 2026-05-06 23:37 | 42.33277 | -72.09962 | 33644 ft | 347 kts | 266° |
| 2026-05-06 23:38 | 42.33134 | -72.13222 | 33968 ft | 346 kts | 266° |
| 2026-05-06 23:38 | 42.32989 | -72.16465 | 34262 ft | 345 kts | 265° |
| 2026-05-06 23:38 | 42.32843 | -72.19695 | 34537 ft | 345 kts | 265° |
| 2026-05-06 23:38 | 42.32693 | -72.22934 | 34801 ft | 344 kts | 265° |
| 2026-05-06 23:39 | 42.32540 | -72.26161 | 35107 ft | 343 kts | 265° |
| 2026-05-06 23:39 | 42.32389 | -72.29368 | 35441 ft | 341 kts | 266° |
| 2026-05-06 23:39 | 42.32238 | -72.32558 | 35691 ft | 340 kts | 266° |
| 2026-05-06 23:40 | 42.31935 | -72.38929 | 35775 ft | 344 kts | 266° |